MSC Bari — A8YD3 — position and weather

sailwx.info

Track history (hours):
 
Tides and Currents Weather Stations Pressure Air Temp Water Temp Dewpoint Dewpoint Depression Visibility Wind Speed Wind Dir Waves Ship Positions

MSC Bari

Last reported at 2014-Sep-16 12:31 UTC. Time now 2014-Sep-16 13:29 UTC.
Position N 43°59' E 009°52'.

Length 366 m; draft 10 m.

Type: Ship (hazmat cat A). MMSI: 636092188.

Date/timePositionNaut miles runAvg speedWind from/ knotsBaromVisibWave heightAir tempDewpointWater temp
2014-Sep-16 12:31N 43°59' E 009°52'0 0.1
2014-Sep-16 11:33N 43°59' E 009°52'8 8.1
2014-Sep-16 10:33N 43°57' E 009°41'1212.2
2014-Sep-16 09:33N 43°50' E 009°28'1312.6
2014-Sep-16 08:33N 43°44' E 009°12'1212.3
2014-Sep-16 07:33N 43°39' E 008°57'1312.5
2014-Sep-16 06:34N 43°34' E 008°41'5313.1
2014-Sep-16 02:30N 43°14' E 007°33'1212.5
2014-Sep-16 01:33N 43°10' E 007°18'1212.4
2014-Sep-16 00:33N 43°06' E 007°02'1212.4
2014-Sep-15 23:33N 43°02' E 006°46'1212.1
2014-Sep-15 22:33N 42°58' E 006°30'1111.2
2014-Sep-15 21:33N 42°53' E 006°16'1111.3
2014-Sep-15 20:33N 42°55' E 006°01'1211.8
2014-Sep-15 19:33N 42°58' E 005°45'1211.8
2014-Sep-15 18:33N 43°00' E 005°29'1212.0
2014-Sep-15 17:33N 43°06' E 005°15'1111.4
2014-Sep-15 16:33N 43°12' E 005°01'1010.0
2014-Sep-15 15:33N 43°21' E 004°58'7 6.8
2014-Sep-15 14:33N 43°25' E 004°50'0 0.0
2014-Sep-15 13:33N 43°25' E 004°50'0 0.0
2014-Sep-15 12:33N 43°25' E 004°50'0 0.0
2014-Sep-15 11:33N 43°25' E 004°50'0 0.0
2014-Sep-15 10:33N 43°25' E 004°50'0 0.0
2014-Sep-15 09:33N 43°25' E 004°50'0 0.0
2014-Sep-15 08:33N 43°25' E 004°50'0 0.0
2014-Sep-15 07:33N 43°25' E 004°50'0 0.0
2014-Sep-15 06:33N 43°25' E 004°50'0 0.0
2014-Sep-15 05:33N 43°25' E 004°50'0 0.0
2014-Sep-15 04:33N 43°25' E 004°50'0 0.0
2014-Sep-15 03:33N 43°25' E 004°50'0 0.0
2014-Sep-15 02:33N 43°25' E 004°50'0 0.0
2014-Sep-15 01:33N 43°25' E 004°50'0 0.0
2014-Sep-15 00:33N 43°25' E 004°50'0 0.0
2014-Sep-14 23:33N 43°25' E 004°50'0 0.0
2014-Sep-14 22:33N 43°25' E 004°50'0 0.0
2014-Sep-14 21:33N 43°25' E 004°50'0 0.0
2014-Sep-14 20:33N 43°25' E 004°50'0 0.0
2014-Sep-14 19:33N 43°25' E 004°50'0 0.0
2014-Sep-14 18:33N 43°25' E 004°50'0 0.0
2014-Sep-14 17:33N 43°25' E 004°50'1 1.0
2014-Sep-14 16:33N 43°25' E 004°51'9 8.6
2014-Sep-14 15:33N 43°18' E 004°60'8 8.0
2014-Sep-14 14:33N 43°10' E 004°60'0 0.3
2014-Sep-14 13:33N 43°11' E 004°60'0 0.2
2014-Sep-14 12:33N 43°10' E 004°60'0 0.1
2014-Sep-14 11:33N 43°10' E 004°59'0 0.1
2014-Sep-14 10:33N 43°10' E 004°60'1 0.6
2014-Sep-14 09:33N 43°11' E 005°00'0 0.4
2014-Sep-14 08:33N 43°11' E 005°01'0 0.3
2014-Sep-14 07:33N 43°11' E 005°01'2 2.2
2014-Sep-14 06:33N 43°09' E 004°60'1211.9
2014-Sep-14 05:33N 42°60' E 004°49'4611.4
2014-Sep-14 01:30N 42°26' E 004°07'4711.9
2014-Sep-13 21:34N 41°52' E 003°23'1312.7
2014-Sep-13 20:32N 41°44' E 003°09'1212.6
2014-Sep-13 19:34N 41°38' E 002°55'1313.0
2014-Sep-13 18:33N 41°31' E 002°40'1313.2
2014-Sep-13 17:33N 41°23' E 002°25'1311.7
2014-Sep-13 16:27N 41°17' E 002°11'2 2.1
2014-Sep-13 15:29N 41°19' E 002°09'0 0.0
2014-Sep-13 14:29N 41°19' E 002°09'0 0.0
2014-Sep-13 11:23N 41°19' E 002°09'0 0.0
2014-Sep-13 08:29N 41°19' E 002°09'0 0.0
2014-Sep-13 07:23N 41°19' E 002°09'12 4.4
2014-Sep-13 04:33N 41°06' E 002°10'0 0.3
2014-Sep-13 03:10N 41°06' E 002°10'0 0.2
2014-Sep-13 02:16N 41°07' E 002°10'0 0.3
2014-Sep-13 01:04N 41°07' E 002°10'0 0.5
2014-Sep-13 00:22N 41°07' E 002°10'0 0.4
2014-Sep-12 23:28N 41°08' E 002°10'1 0.5
2014-Sep-12 22:16N 41°08' E 002°09'0 0.5
2014-Sep-12 21:22N 41°08' E 002°09'0 0.4
2014-Sep-12 20:28N 41°08' E 002°08'1 0.5
2014-Sep-12 19:28N 41°08' E 002°07'1 0.7
2014-Sep-12 18:05N 41°08' E 002°06'1 0.3
2014-Sep-12 16:04N 41°08' E 002°05'0 0.6
2014-Sep-12 15:32N 41°09' E 002°06'8 7.8
2014-Sep-12 14:33N 41°04' E 001°57'3867.3
2014-Sep-12 14:00N 40°36' E 001°24'2452.2 010 / 81014.0 5.4 0.526.021.827.5
2014-Sep-12 13:32N 40°53' E 001°45'1413.9
2014-Sep-12 12:33N 40°43' E 001°33'1313.1
2014-Sep-12 11:33N 40°34' E 001°21'1313.5
2014-Sep-12 10:33N 40°25' E 001°08'1413.5
2014-Sep-12 09:33N 40°16' E 000°55'1413.7
2014-Sep-12 08:33N 40°06' E 000°42'1413.9
2014-Sep-12 07:31N 39°57' E 000°28'1313.6
2014-Sep-12 06:33N 39°48' E 000°15'1413.3
2014-Sep-12 05:32N 39°39' E 000°02'1313.5
2014-Sep-12 04:33N 39°30' W 000°11'8 7.5
2014-Sep-12 03:33N 39°26' W 000°19'0 0.4
2014-Sep-12 02:31N 39°26' W 000°20'0 0.0
2014-Sep-12 01:28N 39°26' W 000°20'0 0.0
2014-Sep-12 00:31N 39°26' W 000°20'0 0.0
2014-Sep-11 23:31N 39°26' W 000°20'0 0.0
2014-Sep-11 19:28N 39°26' W 000°20'0 0.0
2014-Sep-11 18:31N 39°26' W 000°20'0 0.0
2014-Sep-11 17:31N 39°26' W 000°20'0 0.0
2014-Sep-11 16:31N 39°26' W 000°20'0 0.0
2014-Sep-11 15:31N 39°26' W 000°20'0 0.0
2014-Sep-11 14:31N 39°26' W 000°20'0 0.0
2014-Sep-11 13:31N 39°26' W 000°20'0 0.0
2014-Sep-11 12:31N 39°26' W 000°20'0 0.0
2014-Sep-11 11:31N 39°26' W 000°20'0 0.0
2014-Sep-11 10:31N 39°26' W 000°20'0 0.0
2014-Sep-11 09:31N 39°26' W 000°20'0 0.0
2014-Sep-11 08:13N 39°26' W 000°20'0 0.0
2014-Sep-11 07:31N 39°26' W 000°20'0 0.0
2014-Sep-11 06:31N 39°26' W 000°20'0 0.0
2014-Sep-11 05:31N 39°26' W 000°20'0 0.0
2014-Sep-11 04:31N 39°26' W 000°20'0 0.0
2014-Sep-11 03:31N 39°26' W 000°20'0 0.0
2014-Sep-11 02:31N 39°26' W 000°20'0 0.0
2014-Sep-11 01:31N 39°26' W 000°20'0 0.0
2014-Sep-11 00:31N 39°26' W 000°20'0 0.0
2014-Sep-10 23:31N 39°26' W 000°20'1 0.7
2014-Sep-10 22:33N 39°26' W 000°19'6 6.4
2014-Sep-10 21:34N 39°24' W 000°11'5914.8
2014-Sep-10 17:33N 39°17' E 001°05'1413.6
2014-Sep-10 16:33N 39°15' E 001°23'1413.8
2014-Sep-10 15:34N 39°13' E 001°40'1413.8
2014-Sep-10 14:33N 39°12' E 001°58'1413.6
2014-Sep-10 13:34N 39°10' E 002°16'1413.7
2014-Sep-10 12:33N 39°08' E 002°33'712.7
2014-Sep-10 12:00N 39°06' E 002°42'715.5 240 / 81014.010.8 26.021.827.5
2014-Sep-10 11:33N 39°06' E 002°51'1414.0
2014-Sep-10 10:34N 39°05' E 003°09'1413.7
2014-Sep-10 09:33N 39°04' E 003°26'1414.0
2014-Sep-10 08:33N 39°03' E 003°44'1414.0
2014-Sep-10 07:33N 39°02' E 004°02'1414.2
2014-Sep-10 06:33N 39°00' E 004°20'1414.2
2014-Sep-10 05:32N 38°58' E 004°39'3014.4
2014-Sep-10 03:25N 38°57' E 005°18'1314.5
2014-Sep-10 02:33N 38°56' E 005°34'2214.4
2014-Sep-10 01:03N 38°54' E 006°02'14247.7
2014-Sep-10 01:00N 38°48' E 006°18'818.4 070 / 151014.5 2.2 1.024.022.625.5
2014-Sep-10 00:34N 38°54' E 006°11'1414.4
2014-Sep-09 23:33N 38°53' E 006°29'1914.3
2014-Sep-09 22:14N 38°51' E 006°54'1014.4
2014-Sep-09 21:33N 38°50' E 007°06'1413.8
2014-Sep-09 20:33N 38°49' E 007°24'1413.5
2014-Sep-09 19:33N 38°48' E 007°41'1613.7
2014-Sep-09 18:24N 38°47' E 008°01'1214.2
2014-Sep-09 17:33N 38°46' E 008°17'1714.5
2014-Sep-09 16:25N 38°45' E 008°38'1214.1
2014-Sep-09 15:33N 38°44' E 008°53'1414.2
2014-Sep-09 14:33N 38°43' E 009°11'1414.3
2014-Sep-09 13:33N 38°42' E 009°30'14215.1
2014-Sep-09 04:07N 38°30' E 012°31'815.1
2014-Sep-09 03:33N 38°30' E 012°42'1515.0
2014-Sep-09 02:33N 38°28' E 013°01'1515.0
2014-Sep-09 01:33N 38°27' E 013°20'1515.1
2014-Sep-09 00:33N 38°26' E 013°39'1514.9
2014-Sep-08 23:33N 38°25' E 013°58'6614.9
2014-Sep-08 19:08N 38°23' E 015°22'914.9
2014-Sep-08 18:33N 38°24' E 015°33'  
2014-Sep-06 13:00N 36°30' E 019°06'   290 / 81010.0 5.4 0.525.020.728.2
Track history (hours):
 
Tides and Currents Weather Stations Pressure Air Temp Water Temp Dewpoint Dewpoint Depression Visibility Wind Speed Wind Dir Waves Ship Positions

MSC Bari

Last reported at 2014-Sep-16 12:31 UTC. Time now 2014-Sep-16 13:29 UTC.
Position N 43°59' E 009°52'.

Length 366 m; draft 10 m.

Type: Ship (hazmat cat A). MMSI: 636092188.

Date/timePositionNaut miles runAvg speedWind from/ knotsBaromVisibWave heightAir tempDewpointWater temp
2014-Sep-16 12:31N 43°59' E 009°52'0 0.1
2014-Sep-16 11:33N 43°59' E 009°52'8 8.1
2014-Sep-16 10:33N 43°57' E 009°41'1212.2
2014-Sep-16 09:33N 43°50' E 009°28'1312.6
2014-Sep-16 08:33N 43°44' E 009°12'1212.3
2014-Sep-16 07:33N 43°39' E 008°57'1312.5
2014-Sep-16 06:34N 43°34' E 008°41'5313.1
2014-Sep-16 02:30N 43°14' E 007°33'1212.5
2014-Sep-16 01:33N 43°10' E 007°18'1212.4
2014-Sep-16 00:33N 43°06' E 007°02'1212.4
2014-Sep-15 23:33N 43°02' E 006°46'1212.1
2014-Sep-15 22:33N 42°58' E 006°30'1111.2
2014-Sep-15 21:33N 42°53' E 006°16'1111.3
2014-Sep-15 20:33N 42°55' E 006°01'1211.8
2014-Sep-15 19:33N 42°58' E 005°45'1211.8
2014-Sep-15 18:33N 43°00' E 005°29'1212.0
2014-Sep-15 17:33N 43°06' E 005°15'1111.4
2014-Sep-15 16:33N 43°12' E 005°01'1010.0
2014-Sep-15 15:33N 43°21' E 004°58'7 6.8
2014-Sep-15 14:33N 43°25' E 004°50'0 0.0
2014-Sep-15 13:33N 43°25' E 004°50'0 0.0
2014-Sep-15 12:33N 43°25' E 004°50'0 0.0
2014-Sep-15 11:33N 43°25' E 004°50'0 0.0
2014-Sep-15 10:33N 43°25' E 004°50'0 0.0
2014-Sep-15 09:33N 43°25' E 004°50'0 0.0
2014-Sep-15 08:33N 43°25' E 004°50'0 0.0
2014-Sep-15 07:33N 43°25' E 004°50'0 0.0
2014-Sep-15 06:33N 43°25' E 004°50'0 0.0
2014-Sep-15 05:33N 43°25' E 004°50'0 0.0
2014-Sep-15 04:33N 43°25' E 004°50'0 0.0
2014-Sep-15 03:33N 43°25' E 004°50'0 0.0
2014-Sep-15 02:33N 43°25' E 004°50'0 0.0
2014-Sep-15 01:33N 43°25' E 004°50'0 0.0
2014-Sep-15 00:33N 43°25' E 004°50'0 0.0
2014-Sep-14 23:33N 43°25' E 004°50'0 0.0
2014-Sep-14 22:33N 43°25' E 004°50'0 0.0
2014-Sep-14 21:33N 43°25' E 004°50'0 0.0
2014-Sep-14 20:33N 43°25' E 004°50'0 0.0
2014-Sep-14 19:33N 43°25' E 004°50'0 0.0
2014-Sep-14 18:33N 43°25' E 004°50'0 0.0
2014-Sep-14 17:33N 43°25' E 004°50'1 1.0
2014-Sep-14 16:33N 43°25' E 004°51'9 8.6
2014-Sep-14 15:33N 43°18' E 004°60'8 8.0
2014-Sep-14 14:33N 43°10' E 004°60'0 0.3
2014-Sep-14 13:33N 43°11' E 004°60'0 0.2
2014-Sep-14 12:33N 43°10' E 004°60'0 0.1
2014-Sep-14 11:33N 43°10' E 004°59'0 0.1
2014-Sep-14 10:33N 43°10' E 004°60'1 0.6
2014-Sep-14 09:33N 43°11' E 005°00'0 0.4
2014-Sep-14 08:33N 43°11' E 005°01'0 0.3
2014-Sep-14 07:33N 43°11' E 005°01'2 2.2
2014-Sep-14 06:33N 43°09' E 004°60'1211.9
2014-Sep-14 05:33N 42°60' E 004°49'4611.4
2014-Sep-14 01:30N 42°26' E 004°07'4711.9
2014-Sep-13 21:34N 41°52' E 003°23'1312.7
2014-Sep-13 20:32N 41°44' E 003°09'1212.6
2014-Sep-13 19:34N 41°38' E 002°55'1313.0
2014-Sep-13 18:33N 41°31' E 002°40'1313.2
2014-Sep-13 17:33N 41°23' E 002°25'1311.7
2014-Sep-13 16:27N 41°17' E 002°11'2 2.1
2014-Sep-13 15:29N 41°19' E 002°09'0 0.0
2014-Sep-13 14:29N 41°19' E 002°09'0 0.0
2014-Sep-13 11:23N 41°19' E 002°09'0 0.0
2014-Sep-13 08:29N 41°19' E 002°09'0 0.0
2014-Sep-13 07:23N 41°19' E 002°09'12 4.4
2014-Sep-13 04:33N 41°06' E 002°10'0 0.3
2014-Sep-13 03:10N 41°06' E 002°10'0 0.2
2014-Sep-13 02:16N 41°07' E 002°10'0 0.3
2014-Sep-13 01:04N 41°07' E 002°10'0 0.5
2014-Sep-13 00:22N 41°07' E 002°10'0 0.4
2014-Sep-12 23:28N 41°08' E 002°10'1 0.5
2014-Sep-12 22:16N 41°08' E 002°09'0 0.5
2014-Sep-12 21:22N 41°08' E 002°09'0 0.4
2014-Sep-12 20:28N 41°08' E 002°08'1 0.5
2014-Sep-12 19:28N 41°08' E 002°07'1 0.7
2014-Sep-12 18:05N 41°08' E 002°06'1 0.3
2014-Sep-12 16:04N 41°08' E 002°05'0 0.6
2014-Sep-12 15:32N 41°09' E 002°06'8 7.8
2014-Sep-12 14:33N 41°04' E 001°57'3867.3
2014-Sep-12 14:00N 40°36' E 001°24'2452.2 010 / 81014.0 5.4 0.526.021.827.5
2014-Sep-12 13:32N 40°53' E 001°45'1413.9
2014-Sep-12 12:33N 40°43' E 001°33'1313.1
2014-Sep-12 11:33N 40°34' E 001°21'1313.5
2014-Sep-12 10:33N 40°25' E 001°08'1413.5
2014-Sep-12 09:33N 40°16' E 000°55'1413.7
2014-Sep-12 08:33N 40°06' E 000°42'1413.9
2014-Sep-12 07:31N 39°57' E 000°28'1313.6
2014-Sep-12 06:33N 39°48' E 000°15'1413.3
2014-Sep-12 05:32N 39°39' E 000°02'1313.5
2014-Sep-12 04:33N 39°30' W 000°11'8 7.5
2014-Sep-12 03:33N 39°26' W 000°19'0 0.4
2014-Sep-12 02:31N 39°26' W 000°20'0 0.0
2014-Sep-12 01:28N 39°26' W 000°20'0 0.0
2014-Sep-12 00:31N 39°26' W 000°20'0 0.0
2014-Sep-11 23:31N 39°26' W 000°20'0 0.0
2014-Sep-11 19:28N 39°26' W 000°20'0 0.0
2014-Sep-11 18:31N 39°26' W 000°20'0 0.0
2014-Sep-11 17:31N 39°26' W 000°20'0 0.0
2014-Sep-11 16:31N 39°26' W 000°20'0 0.0
2014-Sep-11 15:31N 39°26' W 000°20'0 0.0
2014-Sep-11 14:31N 39°26' W 000°20'0 0.0
2014-Sep-11 13:31N 39°26' W 000°20'0 0.0
2014-Sep-11 12:31N 39°26' W 000°20'0 0.0
2014-Sep-11 11:31N 39°26' W 000°20'0 0.0
2014-Sep-11 10:31N 39°26' W 000°20'0 0.0
2014-Sep-11 09:31N 39°26' W 000°20'0 0.0
2014-Sep-11 08:13N 39°26' W 000°20'0 0.0
2014-Sep-11 07:31N 39°26' W 000°20'0 0.0
2014-Sep-11 06:31N 39°26' W 000°20'0 0.0
2014-Sep-11 05:31N 39°26' W 000°20'0 0.0
2014-Sep-11 04:31N 39°26' W 000°20'0 0.0
2014-Sep-11 03:31N 39°26' W 000°20'0 0.0
2014-Sep-11 02:31N 39°26' W 000°20'0 0.0
2014-Sep-11 01:31N 39°26' W 000°20'0 0.0
2014-Sep-11 00:31N 39°26' W 000°20'0 0.0
2014-Sep-10 23:31N 39°26' W 000°20'1 0.7
2014-Sep-10 22:33N 39°26' W 000°19'6 6.4
2014-Sep-10 21:34N 39°24' W 000°11'5914.8
2014-Sep-10 17:33N 39°17' E 001°05'1413.6
2014-Sep-10 16:33N 39°15' E 001°23'1413.8
2014-Sep-10 15:34N 39°13' E 001°40'1413.8
2014-Sep-10 14:33N 39°12' E 001°58'1413.6
2014-Sep-10 13:34N 39°10' E 002°16'1413.7
2014-Sep-10 12:33N 39°08' E 002°33'712.7
2014-Sep-10 12:00N 39°06' E 002°42'715.5 240 / 81014.010.8 26.021.827.5
2014-Sep-10 11:33N 39°06' E 002°51'1414.0
2014-Sep-10 10:34N 39°05' E 003°09'1413.7
2014-Sep-10 09:33N 39°04' E 003°26'1414.0
2014-Sep-10 08:33N 39°03' E 003°44'1414.0
2014-Sep-10 07:33N 39°02' E 004°02'1414.2
2014-Sep-10 06:33N 39°00' E 004°20'1414.2
2014-Sep-10 05:32N 38°58' E 004°39'3014.4
2014-Sep-10 03:25N 38°57' E 005°18'1314.5
2014-Sep-10 02:33N 38°56' E 005°34'2214.4
2014-Sep-10 01:03N 38°54' E 006°02'14247.7
2014-Sep-10 01:00N 38°48' E 006°18'818.4 070 / 151014.5 2.2 1.024.022.625.5
2014-Sep-10 00:34N 38°54' E 006°11'1414.4
2014-Sep-09 23:33N 38°53' E 006°29'1914.3
2014-Sep-09 22:14N 38°51' E 006°54'1014.4
2014-Sep-09 21:33N 38°50' E 007°06'1413.8
2014-Sep-09 20:33N 38°49' E 007°24'1413.5
2014-Sep-09 19:33N 38°48' E 007°41'1613.7
2014-Sep-09 18:24N 38°47' E 008°01'1214.2
2014-Sep-09 17:33N 38°46' E 008°17'1714.5
2014-Sep-09 16:25N 38°45' E 008°38'1214.1
2014-Sep-09 15:33N 38°44' E 008°53'1414.2
2014-Sep-09 14:33N 38°43' E 009°11'1414.3
2014-Sep-09 13:33N 38°42' E 009°30'14215.1
2014-Sep-09 04:07N 38°30' E 012°31'815.1
2014-Sep-09 03:33N 38°30' E 012°42'1515.0
2014-Sep-09 02:33N 38°28' E 013°01'1515.0
2014-Sep-09 01:33N 38°27' E 013°20'1515.1
2014-Sep-09 00:33N 38°26' E 013°39'1514.9
2014-Sep-08 23:33N 38°25' E 013°58'6614.9
2014-Sep-08 19:08N 38°23' E 015°22'914.9
2014-Sep-08 18:33N 38°24' E 015°33'  
2014-Sep-06 13:00N 36°30' E 019°06'   290 / 81010.0 5.4 0.525.020.728.2

Dump ship's entire track history